Terminal Aerodrome Forecast
Issued by NWS

Home | Current Version | Previous Version | Text Only | Print | Product List | Glossary On
Versions: 1 2 3 4 5 6 7 8 9 10 11 12
000
FTUS45 KABQ 312300
TAFAEG
TAF
KAEG 312334Z 0100/0124 16010KT P6SM FEW070 SCT200
     FM010400 15005KT P6SM VCSH BKN060
     FM011300 VRB05KT P6SM SCT070
     FM011800 17012G18KT P6SM FEW070 SCT200=

USA.gov is the U.S. government's official web portal to all federal, state and local government web resources and services.